createdAt,value
2018-05-14T00:00:12.926Z,0
2018-05-14T00:01:21.841Z,0
2018-05-14T00:02:30.494Z,0
2018-05-14T00:03:39.219Z,0
2018-05-14T00:04:48.073Z,0
2018-05-14T00:05:56.713Z,0
2018-05-14T00:07:05.360Z,0
2018-05-14T00:08:14.007Z,0
2018-05-14T00:09:22.657Z,0
2018-05-14T00:10:31.577Z,0
2018-05-14T00:11:40.224Z,0
2018-05-14T00:12:48.872Z,0
2018-05-14T00:13:57.524Z,0
2018-05-14T00:15:06.165Z,0
2018-05-14T00:16:14.814Z,0
2018-05-14T00:17:23.720Z,0
2018-05-14T00:18:32.372Z,0
2018-05-14T00:19:41.017Z,0
2018-05-14T00:20:49.661Z,0
2018-05-14T00:21:58.303Z,0
2018-05-14T00:23:06.946Z,0
2018-05-14T00:24:15.595Z,0
2018-05-14T00:25:24.240Z,0
2018-05-14T00:26:32.885Z,0
2018-05-14T00:27:41.528Z,0
2018-05-14T00:28:50.175Z,0
2018-05-14T00:29:58.825Z,0
2018-05-14T00:31:07.736Z,0
2018-05-14T00:32:16.376Z,0
2018-05-14T00:33:25.025Z,0
2018-05-14T00:34:33.670Z,0
2018-05-14T00:35:42.325Z,0
2018-05-14T00:36:50.960Z,0
2018-05-14T00:37:59.608Z,0
2018-05-14T00:39:08.254Z,0
2018-05-14T00:40:16.903Z,0
2018-05-14T00:41:25.550Z,0
2018-05-14T00:42:34.461Z,0
2018-05-14T00:43:43.106Z,0
2018-05-14T00:44:51.753Z,0
2018-05-14T00:46:00.400Z,0
2018-05-14T00:47:09.040Z,0
2018-05-14T00:48:17.685Z,0
2018-05-14T00:49:26.339Z,0
2018-05-14T00:50:34.979Z,0
2018-05-14T00:51:43.619Z,0
2018-05-14T00:52:52.267Z,0
2018-05-14T00:54:00.910Z,0
2018-05-14T00:55:09.562Z,0
2018-05-14T00:56:18.202Z,0
2018-05-14T00:57:26.849Z,0
2018-05-14T00:58:35.495Z,0
2018-05-14T00:59:44.406Z,0
2018-05-14T01:00:53.053Z,0
2018-05-14T01:02:01.697Z,0
2018-05-14T01:03:10.342Z,0
2018-05-14T01:04:18.983Z,0
2018-05-14T01:05:27.636Z,0
2018-05-14T01:06:36.328Z,0
2018-05-14T01:07:44.924Z,0
2018-05-14T01:08:53.834Z,0
2018-05-14T01:10:02.484Z,0
2018-05-14T01:11:11.127Z,0
2018-05-14T01:12:20.038Z,0
2018-05-14T01:13:28.680Z,0
2018-05-14T01:14:37.872Z,0
2018-05-14T01:15:46.785Z,0
2018-05-14T01:16:55.430Z,0
2018-05-14T01:18:04.076Z,0
2018-05-14T01:19:12.717Z,0
2018-05-14T01:20:21.363Z,0
2018-05-14T01:21:30.018Z,0
2018-05-14T01:22:38.664Z,0
2018-05-14T01:23:47.304Z,0
2018-05-14T01:24:55.949Z,0
2018-05-14T01:26:04.599Z,0
2018-05-14T01:27:13.515Z,0
2018-05-14T01:28:22.419Z,0
2018-05-14T01:29:31.067Z,0
2018-05-14T01:30:39.707Z,0
2018-05-14T01:31:48.620Z,0
2018-05-14T01:32:57.263Z,0
2018-05-14T01:34:05.910Z,0
2018-05-14T01:35:14.554Z,0
2018-05-14T01:36:23.195Z,0
2018-05-14T01:37:31.846Z,0
2018-05-14T01:38:40.492Z,0
2018-05-14T01:39:49.139Z,0
2018-05-14T01:40:57.778Z,0
2018-05-14T01:42:06.428Z,0
2018-05-14T01:43:15.078Z,0
2018-05-14T01:44:23.721Z,0
2018-05-14T01:45:32.369Z,0
2018-05-14T01:46:41.017Z,0
2018-05-14T01:47:49.662Z,0
2018-05-14T01:48:58.572Z,0
2018-05-14T01:50:07.213Z,0
2018-05-14T01:51:16.150Z,0
2018-05-14T01:52:24.793Z,0
2018-05-14T01:53:33.442Z,0
2018-05-14T01:54:42.090Z,0
2018-05-14T01:55:50.733Z,0
2018-05-14T01:56:59.378Z,0
2018-05-14T01:58:08.285Z,0
2018-05-14T01:59:16.938Z,0
2018-05-14T02:00:25.576Z,0
2018-05-14T02:01:34.229Z,0
2018-05-14T02:02:42.869Z,0
2018-05-14T02:03:51.524Z,0
2018-05-14T02:05:00.168Z,0
2018-05-14T02:06:08.809Z,0
2018-05-14T02:07:17.452Z,0
2018-05-14T02:08:26.380Z,0
2018-05-14T02:09:35.019Z,0
2018-05-14T02:10:43.661Z,0
2018-05-14T02:11:52.303Z,0
2018-05-14T02:13:00.946Z,0
2018-05-14T02:14:09.602Z,0
2018-05-14T02:15:18.508Z,0
2018-05-14T02:16:27.421Z,0
2018-05-14T02:17:36.057Z,0
2018-05-14T02:18:44.711Z,0
2018-05-14T02:19:53.351Z,0
2018-05-14T02:21:02.002Z,0
2018-05-14T02:22:10.639Z,0
2018-05-14T02:23:19.294Z,0
2018-05-14T02:24:28.206Z,0
2018-05-14T02:25:36.856Z,0
2018-05-14T02:26:45.489Z,0
2018-05-14T02:27:54.134Z,0
2018-05-14T02:29:02.784Z,0
2018-05-14T02:30:11.443Z,0
2018-05-14T02:31:20.453Z,0
2018-05-14T02:32:29.359Z,0
2018-05-14T02:33:38.011Z,0
2018-05-14T02:34:46.650Z,0
2018-05-14T02:35:55.309Z,0
2018-05-14T02:37:03.950Z,0
2018-05-14T02:38:13.137Z,0
2018-05-14T02:39:21.780Z,0
2018-05-14T02:40:30.980Z,0
2018-05-14T02:41:39.881Z,0
2018-05-14T02:42:48.529Z,0
2018-05-14T02:43:57.185Z,0
2018-05-14T02:45:05.837Z,0
2018-05-14T02:46:15.046Z,0
2018-05-14T02:47:23.690Z,0
2018-05-14T02:48:32.341Z,0
2018-05-14T02:49:40.985Z,0
2018-05-14T02:50:49.912Z,0
2018-05-14T02:51:58.838Z,0
2018-05-14T02:53:07.747Z,0
2018-05-14T02:54:16.407Z,0
2018-05-14T02:55:25.315Z,0
2018-05-14T02:56:33.966Z,0
2018-05-14T02:57:42.610Z,0
2018-05-14T02:58:51.276Z,0
2018-05-14T02:59:59.912Z,0
2018-05-14T03:01:08.565Z,0
2018-05-14T03:02:17.742Z,0
2018-05-14T03:03:26.662Z,0
2018-05-14T03:04:35.879Z,0
2018-05-14T03:05:44.630Z,0
2018-05-14T03:06:53.686Z,4
2018-05-14T03:08:02.653Z,0
2018-05-14T03:09:11.310Z,0
2018-05-14T03:10:20.228Z,0
2018-05-14T03:11:28.906Z,4
2018-05-14T03:12:37.542Z,4
2018-05-14T03:13:46.206Z,4
2018-05-14T03:14:54.844Z,4
2018-05-14T03:16:03.506Z,4
2018-05-14T03:17:12.143Z,4
2018-05-14T03:18:20.797Z,8
2018-05-14T03:19:29.438Z,8
2018-05-14T03:20:38.086Z,8
2018-05-14T03:21:46.721Z,12
2018-05-14T03:22:55.370Z,16
2018-05-14T03:24:04.018Z,16
2018-05-14T03:25:12.929Z,16
2018-05-14T03:26:21.574Z,24
2018-05-14T03:27:30.213Z,24
2018-05-14T03:28:38.863Z,24
2018-05-14T03:29:47.503Z,28
2018-05-14T03:30:56.427Z,36
2018-05-14T03:32:05.066Z,40
2018-05-14T03:33:13.712Z,44
2018-05-14T03:34:22.354Z,44
2018-05-14T03:35:31.017Z,44
2018-05-14T03:36:40.187Z,52
2018-05-14T03:37:48.838Z,56
2018-05-14T03:38:57.478Z,48
2018-05-14T03:40:06.130Z,56
2018-05-14T03:41:14.772Z,72
2018-05-14T03:42:23.411Z,88
2018-05-14T03:43:32.055Z,80
2018-05-14T03:44:40.700Z,104
2018-05-14T03:45:49.616Z,104
2018-05-14T03:46:58.261Z,100
2018-05-14T03:48:06.911Z,112
2018-05-14T03:49:15.548Z,116
2018-05-14T03:50:24.198Z,144
2018-05-14T03:51:32.842Z,168
2018-05-14T03:52:41.756Z,176
2018-05-14T03:53:50.397Z,168
2018-05-14T03:54:59.047Z,172
2018-05-14T03:56:07.690Z,184
2018-05-14T03:57:16.339Z,152
2018-05-14T03:58:24.981Z,152
2018-05-14T03:59:33.636Z,168
2018-05-14T04:00:42.282Z,204
2018-05-14T04:01:50.931Z,184
2018-05-14T04:02:59.609Z,200
2018-05-14T04:04:08.220Z,200
2018-05-14T04:05:16.866Z,212
2018-05-14T04:06:25.514Z,240
2018-05-14T04:07:34.165Z,288
2018-05-14T04:08:42.806Z,280
2018-05-14T04:09:51.451Z,304
2018-05-14T04:11:00.098Z,292
2018-05-14T04:12:09.019Z,276
2018-05-14T04:13:17.662Z,272
2018-05-14T04:14:26.308Z,260
2018-05-14T04:15:35.217Z,312
2018-05-14T04:16:43.866Z,344
2018-05-14T04:17:52.509Z,396
2018-05-14T04:19:01.419Z,432
2018-05-14T04:20:10.063Z,456
2018-05-14T04:21:18.707Z,388
2018-05-14T04:22:27.356Z,448
2018-05-14T04:23:36.003Z,448
2018-05-14T04:24:44.648Z,484
2018-05-14T04:25:53.287Z,572
2018-05-14T04:27:01.939Z,548
2018-05-14T04:28:10.585Z,580
2018-05-14T04:29:19.229Z,712
2018-05-14T04:30:28.137Z,748
2018-05-14T04:31:36.790Z,884
2018-05-14T04:32:45.434Z,772
2018-05-14T04:33:54.081Z,732
2018-05-14T04:35:02.723Z,748
2018-05-14T04:36:11.372Z,872
2018-05-14T04:37:20.015Z,688
2018-05-14T04:38:28.930Z,656
2018-05-14T04:39:37.576Z,876
2018-05-14T04:40:46.218Z,844
2018-05-14T04:41:54.864Z,1088
2018-05-14T04:43:03.531Z,1208
2018-05-14T04:44:12.179Z,1220
2018-05-14T04:45:20.819Z,1100
2018-05-14T04:46:29.464Z,1060
2018-05-14T04:47:38.110Z,1284
2018-05-14T04:48:46.753Z,1236
2018-05-14T04:49:55.405Z,1176
2018-05-14T04:51:04.048Z,1148
2018-05-14T04:52:12.701Z,1364
2018-05-14T04:53:21.605Z,1548
2018-05-14T04:54:30.251Z,1188
2018-05-14T04:55:38.900Z,1224
2018-05-14T04:56:47.813Z,1308
2018-05-14T04:57:56.462Z,1376
2018-05-14T04:59:05.098Z,1504
2018-05-14T05:00:13.749Z,1352
2018-05-14T05:01:22.388Z,1972
2018-05-14T05:02:31.043Z,1812
2018-05-14T05:03:39.679Z,1780
2018-05-14T05:04:48.331Z,1972
2018-05-14T05:05:57.231Z,2360
2018-05-14T05:07:05.887Z,1776
2018-05-14T05:08:14.524Z,1916
2018-05-14T05:09:23.170Z,1376
2018-05-14T05:10:31.919Z,1416
2018-05-14T05:11:40.469Z,1656
2018-05-14T05:12:49.115Z,2208
2018-05-14T05:13:58.017Z,2128
2018-05-14T05:15:06.662Z,1764
2018-05-14T05:16:15.304Z,1920
2018-05-14T05:17:23.960Z,1920
2018-05-14T05:18:32.602Z,2292
2018-05-14T05:19:41.516Z,2424
2018-05-14T05:20:50.151Z,1960
2018-05-14T05:21:58.811Z,2304
2018-05-14T05:23:07.450Z,2728
2018-05-14T05:24:16.102Z,2320
2018-05-14T05:25:24.740Z,2672
2018-05-14T05:26:33.664Z,2268
2018-05-14T05:27:42.312Z,2964
2018-05-14T05:28:51.228Z,2460
2018-05-14T05:30:00.397Z,2064
2018-05-14T05:31:09.043Z,2296
2018-05-14T05:32:17.695Z,2652
2018-05-14T05:33:26.347Z,2744
2018-05-14T05:34:35.014Z,2416
2018-05-14T05:35:43.626Z,1880
2018-05-14T05:36:52.274Z,1936
2018-05-14T05:38:00.971Z,2268
2018-05-14T05:39:09.840Z,2188
2018-05-14T05:40:19.004Z,1876
2018-05-14T05:41:27.658Z,2796
2018-05-14T05:42:36.300Z,2692
2018-05-14T05:43:45.220Z,2340
2018-05-14T05:44:53.852Z,2256
2018-05-14T05:46:02.500Z,2168
2018-05-14T05:47:11.149Z,2592
2018-05-14T05:48:19.800Z,3080
2018-05-14T05:49:28.441Z,3828
2018-05-14T05:50:37.092Z,4612
2018-05-14T05:51:46.002Z,5312
2018-05-14T05:52:54.644Z,4064
2018-05-14T05:54:03.562Z,4528
2018-05-14T05:55:12.204Z,5108
2018-05-14T05:56:21.116Z,4656
2018-05-14T05:57:29.758Z,5152
2018-05-14T05:58:38.685Z,5608
2018-05-14T05:59:47.592Z,5608
2018-05-14T06:00:56.241Z,4292
2018-05-14T06:02:05.146Z,3812
2018-05-14T06:03:13.802Z,3460
2018-05-14T06:04:22.457Z,2948
2018-05-14T06:05:31.104Z,2956
2018-05-14T06:06:39.748Z,2684
2018-05-14T06:07:48.394Z,2428
2018-05-14T06:08:57.040Z,2352
2018-05-14T06:10:05.695Z,2364
2018-05-14T06:11:14.607Z,2392
2018-05-14T06:12:23.254Z,2400
2018-05-14T06:13:31.900Z,2368
2018-05-14T06:14:40.542Z,2336
2018-05-14T06:15:49.193Z,2392
2018-05-14T06:16:57.839Z,2728
2018-05-14T06:18:06.483Z,2888
2018-05-14T06:19:15.395Z,2992
2018-05-14T06:20:24.308Z,2884
2018-05-14T06:21:33.218Z,2800
2018-05-14T06:22:41.865Z,2808
2018-05-14T06:23:50.519Z,2744
2018-05-14T06:24:59.435Z,2752
2018-05-14T06:26:08.079Z,2788
2018-05-14T06:27:16.728Z,2776
2018-05-14T06:28:25.371Z,2748
2018-05-14T06:29:34.011Z,2696
2018-05-14T06:30:42.662Z,2688
2018-05-14T06:31:51.308Z,2604
2018-05-14T06:32:59.957Z,2652
2018-05-14T06:34:08.861Z,2672
2018-05-14T06:35:17.789Z,2696
2018-05-14T06:36:26.436Z,2708
2018-05-14T06:37:35.082Z,2768
2018-05-14T06:38:43.724Z,2780
2018-05-14T06:39:52.372Z,2796
2018-05-14T06:41:01.017Z,2796
2018-05-14T06:42:09.665Z,2840
2018-05-14T06:43:18.309Z,2852
2018-05-14T06:44:27.263Z,2832
2018-05-14T06:45:35.890Z,2852
2018-05-14T06:46:44.538Z,2892
2018-05-14T06:47:53.181Z,2912
2018-05-14T06:49:01.835Z,2884
2018-05-14T06:50:10.478Z,2820
2018-05-14T06:51:19.128Z,2820
2018-05-14T06:52:27.772Z,2860
2018-05-14T06:53:36.689Z,2844
2018-05-14T06:54:45.335Z,2900
2018-05-14T06:55:53.979Z,2904
2018-05-14T06:57:02.625Z,3012
2018-05-14T06:58:11.273Z,3072
2018-05-14T06:59:19.918Z,3164
2018-05-14T07:00:28.565Z,3292
2018-05-14T07:01:37.208Z,3224
2018-05-14T07:02:45.878Z,3192
2018-05-14T07:03:54.815Z,3328
2018-05-14T07:05:03.487Z,3428
2018-05-14T07:06:12.122Z,3252
2018-05-14T07:07:20.765Z,3192
2018-05-14T07:08:29.411Z,3080
2018-05-14T07:09:38.057Z,3040
2018-05-14T07:10:46.716Z,3040
2018-05-14T07:11:55.625Z,3012
2018-05-14T07:13:04.279Z,3000
2018-05-14T07:14:12.925Z,3016
2018-05-14T07:15:21.618Z,2972
2018-05-14T07:16:30.259Z,2964
2018-05-14T07:17:38.929Z,2948
2018-05-14T07:18:47.594Z,2940
2018-05-14T07:19:56.246Z,2896
2018-05-14T07:21:05.161Z,2872
2018-05-14T07:22:13.807Z,2892
2018-05-14T07:23:23.053Z,2928
2018-05-14T07:24:31.889Z,2944
2018-05-14T07:25:41.096Z,2992
2018-05-14T07:26:49.518Z,2980
2018-05-14T07:27:58.875Z,3036
2018-05-14T07:29:07.608Z,3020
2018-05-14T07:30:16.383Z,2972
2018-05-14T07:31:25.441Z,2992
2018-05-14T07:32:34.440Z,3036
2018-05-14T07:33:43.437Z,3056
2018-05-14T07:34:52.130Z,3028
2018-05-14T07:36:01.034Z,3004
2018-05-14T07:37:10.209Z,2996
2018-05-14T07:38:18.598Z,3012
2018-05-14T07:39:27.247Z,3000
2018-05-14T07:40:36.588Z,3020
2018-05-14T07:41:45.519Z,3048
2018-05-14T07:42:54.175Z,3036
2018-05-14T07:44:03.341Z,3044
2018-05-14T07:45:12.264Z,3056
2018-05-14T07:46:21.167Z,3072
2018-05-14T07:47:30.372Z,3052
2018-05-14T07:48:39.302Z,3060
2018-05-14T07:49:48.097Z,3036
2018-05-14T07:50:56.745Z,3004
2018-05-14T07:52:05.683Z,2992
2018-05-14T07:53:14.833Z,3012
2018-05-14T07:54:23.929Z,3016
2018-05-14T07:55:32.838Z,3028
2018-05-14T07:56:41.497Z,3016
2018-05-14T07:57:50.412Z,3024
2018-05-14T07:58:59.055Z,3032
2018-05-14T08:00:07.704Z,3028
2018-05-14T08:01:16.348Z,3036
2018-05-14T08:02:25.268Z,2992
2018-05-14T08:03:33.922Z,2984
2018-05-14T08:04:42.570Z,2972
2018-05-14T08:05:51.255Z,2936
2018-05-14T08:06:59.867Z,2916
2018-05-14T08:08:08.524Z,2920
2018-05-14T08:09:17.453Z,2896
2018-05-14T08:10:26.095Z,2900
2018-05-14T08:11:35.021Z,2888
2018-05-14T08:12:44.059Z,2892
2018-05-14T08:13:52.708Z,2892
2018-05-14T08:15:01.348Z,2892
2018-05-14T08:16:09.998Z,2880
2018-05-14T08:17:18.652Z,2876
2018-05-14T08:18:27.303Z,2868
2018-05-14T08:19:36.058Z,2860
2018-05-14T08:20:44.594Z,2620
2018-05-14T08:21:53.247Z,2848
2018-05-14T08:23:01.899Z,2836
2018-05-14T08:24:10.558Z,2824
2018-05-14T08:25:19.197Z,2812
2018-05-14T08:26:27.849Z,2816
2018-05-14T08:27:36.492Z,2816
2018-05-14T08:28:45.150Z,2816
2018-05-14T08:29:53.789Z,2828
2018-05-14T08:31:02.439Z,2816
2018-05-14T08:32:11.103Z,2820
2018-05-14T08:33:19.763Z,2760
2018-05-14T08:34:28.408Z,2716
2018-05-14T08:35:37.052Z,2836
2018-05-14T08:36:45.700Z,2844
2018-05-14T08:37:54.613Z,2852
2018-05-14T08:39:03.272Z,2860
2018-05-14T08:40:12.180Z,2848
2018-05-14T08:41:20.834Z,2852
2018-05-14T08:42:29.863Z,2840
2018-05-14T08:43:38.456Z,2852
2018-05-14T08:44:47.372Z,2852
2018-05-14T08:45:56.021Z,2840
2018-05-14T08:47:04.664Z,2848
2018-05-14T08:48:13.317Z,2856
2018-05-14T08:49:21.963Z,2840
2018-05-14T08:50:30.616Z,2840
2018-05-14T08:51:39.260Z,2844
2018-05-14T08:52:47.914Z,2844
2018-05-14T08:53:56.891Z,2844
2018-05-14T08:55:05.555Z,2832
2018-05-14T08:56:14.195Z,2832
2018-05-14T08:57:22.838Z,2816
2018-05-14T08:58:31.487Z,2840
2018-05-14T08:59:40.136Z,2848
2018-05-14T09:00:48.853Z,2872
2018-05-14T09:01:57.443Z,2872
2018-05-14T09:03:06.086Z,2860
2018-05-14T09:04:14.741Z,2860
2018-05-14T09:05:23.399Z,2836
2018-05-14T09:06:32.315Z,2820
2018-05-14T09:07:40.968Z,2844
2018-05-14T09:08:49.947Z,2852
2018-05-14T09:09:58.575Z,2856
2018-05-14T09:11:07.219Z,2856
2018-05-14T09:12:15.874Z,2840
2018-05-14T09:13:24.515Z,2824
2018-05-14T09:14:33.170Z,2812
2018-05-14T09:15:41.823Z,2808
2018-05-14T09:16:50.472Z,2800
2018-05-14T09:17:59.128Z,2800
2018-05-14T09:19:08.037Z,2800
2018-05-14T09:20:16.693Z,2804
2018-05-14T09:21:25.340Z,2812
2018-05-14T09:22:33.988Z,2820
2018-05-14T09:23:42.630Z,2816
2018-05-14T09:24:51.286Z,2824
2018-05-14T09:25:59.943Z,2808
2018-05-14T09:27:08.856Z,2808
2018-05-14T09:28:17.501Z,2808
2018-05-14T09:29:26.419Z,2808
2018-05-14T09:30:35.066Z,2820
2018-05-14T09:31:43.719Z,2820
2018-05-14T09:32:52.374Z,2832
2018-05-14T09:34:01.017Z,2832
2018-05-14T09:35:09.666Z,2824
2018-05-14T09:36:18.318Z,2816
2018-05-14T09:37:26.975Z,2824
2018-05-14T09:38:35.620Z,2828
2018-05-14T09:39:44.555Z,2852
2018-05-14T09:40:53.206Z,2860
2018-05-14T09:42:02.137Z,2896
2018-05-14T09:43:10.778Z,2908
2018-05-14T09:44:19.434Z,2920
2018-05-14T09:45:28.080Z,2928
2018-05-14T09:46:36.739Z,2936
2018-05-14T09:47:45.699Z,2936
2018-05-14T09:48:54.565Z,2940
2018-05-14T09:50:03.215Z,2932
2018-05-14T09:51:11.944Z,2928
2018-05-14T09:52:20.602Z,2908
2018-05-14T09:53:29.515Z,2904
2018-05-14T09:54:38.180Z,2936
2018-05-14T09:55:47.088Z,2924
2018-05-14T09:56:55.749Z,2940
2018-05-14T09:58:04.391Z,2952
2018-05-14T09:59:13.319Z,2952
2018-05-14T10:00:21.962Z,2968
2018-05-14T10:01:30.620Z,3000
2018-05-14T10:02:39.268Z,3004
2018-05-14T10:03:47.920Z,3016
2018-05-14T10:04:56.560Z,2996
2018-05-14T10:06:05.215Z,3004
2018-05-14T10:07:13.868Z,3008
2018-05-14T10:08:22.520Z,3004
2018-05-14T10:09:31.439Z,2976
2018-05-14T10:10:40.074Z,2976
2018-05-14T10:11:48.727Z,2984
2018-05-14T10:12:57.449Z,2980
2018-05-14T10:14:06.375Z,2992
2018-05-14T10:15:15.092Z,2996
2018-05-14T10:16:23.670Z,3004
2018-05-14T10:17:32.315Z,3024
2018-05-14T10:18:41.047Z,3024
2018-05-14T10:19:49.624Z,3028
2018-05-14T10:20:58.275Z,3036
2018-05-14T10:22:06.924Z,3064
2018-05-14T10:23:15.584Z,3076
2018-05-14T10:24:24.239Z,3072
2018-05-14T10:25:32.878Z,3084
2018-05-14T10:26:41.527Z,3116
2018-05-14T10:27:50.178Z,3112
2018-05-14T10:28:58.835Z,3128
2018-05-14T10:30:07.485Z,3140
2018-05-14T10:31:16.137Z,3156
2018-05-14T10:32:24.778Z,3164
2018-05-14T10:33:33.439Z,3168
2018-05-14T10:34:42.086Z,3180
2018-05-14T10:35:50.745Z,3196
2018-05-14T10:36:59.387Z,3188
2018-05-14T10:38:08.047Z,3196
2018-05-14T10:39:16.697Z,3232
2018-05-14T10:40:25.866Z,3224
2018-05-14T10:41:34.786Z,3232
2018-05-14T10:42:43.435Z,3240
2018-05-14T10:43:52.082Z,3268
2018-05-14T10:45:00.996Z,3288
2018-05-14T10:46:09.644Z,3304
2018-05-14T10:47:18.307Z,3288
2018-05-14T10:48:27.216Z,3292
2018-05-14T10:49:36.139Z,3268
2018-05-14T10:50:44.780Z,3300
2018-05-14T10:51:53.441Z,3324
2018-05-14T10:53:02.092Z,3320
2018-05-14T10:54:10.742Z,3312
2018-05-14T10:55:19.384Z,3304
2018-05-14T10:56:28.048Z,3300
2018-05-14T10:57:36.692Z,3320
2018-05-14T10:58:45.389Z,3332
2018-05-14T10:59:53.989Z,3352
2018-05-14T11:01:02.642Z,3344
2018-05-14T11:02:11.298Z,3344
2018-05-14T11:03:19.952Z,3328
2018-05-14T11:04:28.604Z,3316
2018-05-14T11:05:37.246Z,3332
2018-05-14T11:06:46.171Z,3328
2018-05-14T11:07:55.088Z,3340
2018-05-14T11:09:03.753Z,3332
2018-05-14T11:10:12.386Z,3316
2018-05-14T11:11:21.043Z,3304
2018-05-14T11:12:29.689Z,3304
2018-05-14T11:13:38.349Z,3348
2018-05-14T11:14:46.993Z,3344
2018-05-14T11:15:55.646Z,3372
2018-05-14T11:17:04.567Z,3360
2018-05-14T11:18:13.228Z,3360
2018-05-14T11:19:21.877Z,3384
2018-05-14T11:20:30.525Z,3380
2018-05-14T11:21:39.174Z,3344
2018-05-14T11:22:47.828Z,3336
2018-05-14T11:23:56.489Z,3336
2018-05-14T11:25:05.140Z,3360
2018-05-14T11:26:13.798Z,3368
2018-05-14T11:27:22.528Z,3364
2018-05-14T11:28:31.100Z,3312
2018-05-14T11:29:39.750Z,3312
2018-05-14T11:30:48.409Z,3284
2018-05-14T11:31:57.051Z,3312
2018-05-14T11:33:05.712Z,3320
2018-05-14T11:34:14.360Z,3304
2018-05-14T11:35:23.062Z,3308
2018-05-14T11:36:31.686Z,3336
2018-05-14T11:37:40.344Z,3344
2018-05-14T11:38:49.003Z,3328
2018-05-14T11:39:57.923Z,3304
2018-05-14T11:41:06.578Z,3304
2018-05-14T11:42:15.227Z,3300
2018-05-14T11:43:24.145Z,3320
2018-05-14T11:44:33.071Z,3292
2018-05-14T11:45:41.721Z,3292
2018-05-14T11:46:50.370Z,3312
2018-05-14T11:47:59.024Z,3324
2018-05-14T11:49:07.677Z,3344
2018-05-14T11:50:16.600Z,3340
2018-05-14T11:51:25.247Z,3328
2018-05-14T11:52:34.165Z,3292
2018-05-14T11:53:42.816Z,3296
2018-05-14T11:54:51.740Z,3284
2018-05-14T11:56:00.391Z,3292
2018-05-14T11:57:09.045Z,3312
2018-05-14T11:58:17.695Z,3328
2018-05-14T11:59:26.344Z,3304
2018-05-14T12:00:35.003Z,3280
2018-05-14T12:01:43.657Z,3288
2018-05-14T12:02:52.631Z,3296
2018-05-14T12:04:01.657Z,3260
2018-05-14T12:05:10.314Z,3264
2018-05-14T12:06:19.232Z,3264
2018-05-14T12:07:27.887Z,3280
2018-05-14T12:08:36.534Z,3304
2018-05-14T12:09:45.459Z,3292
2018-05-14T12:10:54.110Z,3272
2018-05-14T12:12:02.762Z,3292
2018-05-14T12:13:11.740Z,3304
2018-05-14T12:14:20.396Z,3280
2018-05-14T12:15:29.048Z,3280
2018-05-14T12:16:37.702Z,3300
2018-05-14T12:17:46.357Z,3328
2018-05-14T12:18:55.006Z,3232
2018-05-14T12:20:03.659Z,3264
2018-05-14T12:21:12.314Z,3268
2018-05-14T12:22:20.969Z,3264
2018-05-14T12:23:29.616Z,3272
2018-05-14T12:24:38.269Z,3236
2018-05-14T12:25:46.992Z,3276
2018-05-14T12:26:55.585Z,3288
2018-05-14T12:28:04.242Z,3292
2018-05-14T12:29:12.892Z,3336
2018-05-14T12:30:21.811Z,3312
2018-05-14T12:31:30.482Z,3304
2018-05-14T12:32:39.175Z,3316
2018-05-14T12:33:47.786Z,3324
2018-05-14T12:34:56.435Z,3332
2018-05-14T12:36:05.086Z,3312
2018-05-14T12:37:13.743Z,3316
2018-05-14T12:38:22.400Z,3324
2018-05-14T12:39:31.052Z,3336
2018-05-14T12:40:39.699Z,3324
2018-05-14T12:41:48.358Z,3328
2018-05-14T12:42:57.013Z,3340
2018-05-14T12:44:05.940Z,3344
2018-05-14T12:45:14.588Z,3352
2018-05-14T12:46:23.248Z,3364
2018-05-14T12:47:31.899Z,3360
2018-05-14T12:48:40.556Z,3352
2018-05-14T12:49:49.207Z,3360
2018-05-14T12:50:57.862Z,3364
2018-05-14T12:52:06.517Z,3344
2018-05-14T12:53:15.170Z,3376
2018-05-14T12:54:23.858Z,3384
2018-05-14T12:55:32.475Z,3368
2018-05-14T12:56:41.128Z,3392
2018-05-14T12:57:49.781Z,3392
2018-05-14T12:58:58.443Z,3372
2018-05-14T13:00:07.094Z,3404
2018-05-14T13:01:15.747Z,3400
2018-05-14T13:02:24.401Z,3412
2018-05-14T13:03:33.055Z,3428
2018-05-14T13:04:41.964Z,3432
2018-05-14T13:05:50.896Z,3412
2018-05-14T13:06:59.556Z,3400
2018-05-14T13:08:08.567Z,3388
2018-05-14T13:09:17.218Z,3392
2018-05-14T13:10:25.872Z,3384
2018-05-14T13:11:34.796Z,3384
2018-05-14T13:12:43.447Z,3400
2018-05-14T13:13:52.105Z,3436
2018-05-14T13:15:00.762Z,3424
2018-05-14T13:16:09.419Z,3412
2018-05-14T13:17:18.070Z,3416
2018-05-14T13:18:26.990Z,3372
2018-05-14T13:19:35.651Z,3388
2018-05-14T13:20:44.304Z,3376
2018-05-14T13:21:52.953Z,3380
2018-05-14T13:23:01.610Z,3424
2018-05-14T13:24:10.260Z,3424
2018-05-14T13:25:18.917Z,3420
2018-05-14T13:26:27.564Z,3396
2018-05-14T13:27:36.220Z,3396
2018-05-14T13:28:44.874Z,3400
2018-05-14T13:29:53.791Z,3364
2018-05-14T13:31:02.452Z,3320
2018-05-14T13:32:11.120Z,3340
2018-05-14T13:33:19.749Z,3356
2018-05-14T13:34:28.670Z,3392
2018-05-14T13:35:37.332Z,3404
2018-05-14T13:36:45.975Z,3364
2018-05-14T13:37:54.755Z,3368
2018-05-14T13:39:03.551Z,3376
2018-05-14T13:40:12.214Z,3352
2018-05-14T13:41:20.858Z,3340
2018-05-14T13:42:29.517Z,3384
2018-05-14T13:43:38.164Z,3352
2018-05-14T13:44:46.837Z,3348
2018-05-14T13:45:55.478Z,3284
2018-05-14T13:47:04.279Z,3272
2018-05-14T13:48:12.929Z,3276
2018-05-14T13:49:21.575Z,3292
2018-05-14T13:50:30.237Z,3292
2018-05-14T13:51:38.886Z,3296
2018-05-14T13:52:47.546Z,3296
2018-05-14T13:53:56.263Z,3320
2018-05-14T13:55:04.851Z,3256
2018-05-14T13:56:13.501Z,3224
2018-05-14T13:57:22.167Z,3216
2018-05-14T13:58:30.809Z,3244
2018-05-14T13:59:39.473Z,3244
2018-05-14T14:00:48.124Z,3224
2018-05-14T14:01:56.779Z,3244
2018-05-14T14:03:05.433Z,3224
2018-05-14T14:04:14.349Z,3120
2018-05-14T14:05:23.007Z,3104
2018-05-14T14:06:31.663Z,3100
2018-05-14T14:07:40.320Z,2996
2018-05-14T14:08:48.961Z,2980
2018-05-14T14:09:57.619Z,2940
2018-05-14T14:11:06.272Z,3020
2018-05-14T14:12:16.004Z,3016
2018-05-14T14:13:24.648Z,3020
2018-05-14T14:14:33.305Z,2988
2018-05-14T14:15:41.957Z,2976
2018-05-14T14:16:50.626Z,3004
2018-05-14T14:17:59.532Z,2996
2018-05-14T14:19:08.189Z,2976
2018-05-14T14:20:16.841Z,2948
2018-05-14T14:21:25.500Z,2932
2018-05-14T14:22:34.161Z,2916
2018-05-14T14:23:43.245Z,2856
2018-05-14T14:24:52.788Z,2864
2018-05-14T14:26:01.442Z,2868
2018-05-14T14:27:10.101Z,2844
2018-05-14T14:28:18.750Z,2832
2018-05-14T14:29:27.410Z,2828
2018-05-14T14:30:36.056Z,2844
2018-05-14T14:31:44.990Z,2812
2018-05-14T14:32:53.636Z,2836
2018-05-14T14:34:02.299Z,2836
2018-05-14T14:35:11.222Z,2836
2018-05-14T14:36:20.430Z,2816
2018-05-14T14:37:28.956Z,2816
2018-05-14T14:38:37.597Z,2788
2018-05-14T14:39:46.522Z,2812
2018-05-14T14:40:55.174Z,2772
2018-05-14T14:42:03.911Z,2816
2018-05-14T14:43:12.476Z,2788
2018-05-14T14:44:21.126Z,2736
2018-05-14T14:45:30.064Z,2704
2018-05-14T14:46:38.708Z,2680
2018-05-14T14:47:47.366Z,2692
2018-05-14T14:48:56.010Z,2644
2018-05-14T14:50:04.675Z,2652
2018-05-14T14:51:13.323Z,2636
2018-05-14T14:52:21.980Z,2624
2018-05-14T14:53:30.711Z,2616
2018-05-14T14:54:39.288Z,2596
2018-05-14T14:55:47.941Z,2616
2018-05-14T14:56:56.596Z,2608
2018-05-14T14:58:05.507Z,2588
2018-05-14T14:59:14.159Z,2580
2018-05-14T15:00:22.818Z,2588
2018-05-14T15:01:31.473Z,2592
2018-05-14T15:02:40.128Z,2572
2018-05-14T15:03:48.772Z,2564
2018-05-14T15:04:57.698Z,2544
2018-05-14T15:06:06.342Z,2540
2018-05-14T15:07:15.004Z,2528
2018-05-14T15:08:23.655Z,2520
2018-05-14T15:09:32.316Z,2512
2018-05-14T15:10:40.964Z,2496
2018-05-14T15:11:49.622Z,2468
2018-05-14T15:12:58.266Z,2476
2018-05-14T15:14:07.191Z,2448
2018-05-14T15:15:15.850Z,2440
2018-05-14T15:16:24.515Z,2444
2018-05-14T15:17:33.701Z,2436
2018-05-14T15:18:42.349Z,2416
2018-05-14T15:19:51.267Z,2420
2018-05-14T15:20:59.917Z,2428
2018-05-14T15:22:08.846Z,2416
2018-05-14T15:23:17.496Z,2404
2018-05-14T15:24:26.154Z,2396
2018-05-14T15:25:34.797Z,2384
2018-05-14T15:26:43.462Z,2360
2018-05-14T15:27:52.116Z,2376
2018-05-14T15:29:00.774Z,2364
2018-05-14T15:30:09.417Z,2348
2018-05-14T15:31:18.084Z,2348
2018-05-14T15:32:26.989Z,2328
2018-05-14T15:33:35.644Z,2324
2018-05-14T15:34:44.291Z,2324
2018-05-14T15:35:52.947Z,2316
2018-05-14T15:37:01.600Z,2324
2018-05-14T15:38:10.256Z,2316